Terminal Aerodrome Forecast
Issued by NWS Cleveland, OH

Home | Current Version | Previous Version | Text Only | Print | Product List | Glossary Off
Versions: 1 2 3 4 5 6 7 8 9 10 11 12 13 14 15

608
FTUS41 KCLE 192322
TAFTOL
TAF
KTOL 192322Z 2000/2024 26004KT P6SM SCT050 BKN150
      TEMPO 2000/2001 3SM -TSRA BKN040CB
     FM200200 24004KT P6SM SCT250
     FM200800 00000KT 4SM BR SCT110
     FM201300 22008KT P6SM VCSH BKN040
     FM202000 24011KT P6SM VCTS BKN040CB=

USA.gov is the U.S. government's official web portal to all federal, state and local government web resources and services.